createdAt,value
2023-05-03T00:00:08.539Z,7.20
2023-05-03T00:02:39.193Z,7.20
2023-05-03T00:05:09.733Z,7.20
2023-05-03T00:07:37.723Z,7.20
2023-05-03T00:10:06.809Z,7.20
2023-05-03T00:12:36.164Z,7.10
2023-05-03T00:15:04.303Z,7.10
2023-05-03T00:17:32.334Z,7.10
2023-05-03T00:20:00.537Z,7.10
2023-05-03T00:22:28.669Z,7.00
2023-05-03T00:24:56.700Z,7.10
2023-05-03T00:27:25.065Z,7.00
2023-05-03T00:29:54.466Z,7.10
2023-05-03T00:32:23.562Z,7.00
2023-05-03T00:34:54.714Z,7.00
2023-05-03T00:37:23.030Z,7.00
2023-05-03T00:39:51.051Z,6.90
2023-05-03T00:42:19.025Z,6.90
2023-05-03T00:44:47.062Z,6.90
2023-05-03T00:47:17.689Z,6.90
2023-05-03T00:49:45.997Z,6.90
2023-05-03T00:52:14.160Z,6.90
2023-05-03T00:54:42.222Z,6.90
2023-05-03T00:57:10.376Z,6.90
2023-05-03T00:59:38.806Z,6.80
2023-05-03T01:02:06.817Z,6.80
2023-05-03T01:04:37.162Z,6.80
2023-05-03T01:07:11.184Z,6.80
2023-05-03T01:09:45.272Z,6.70
2023-05-03T01:12:25.188Z,6.70
2023-05-03T01:15:04.557Z,6.70
2023-05-03T01:17:40.095Z,6.60
2023-05-03T01:20:12.227Z,6.70
2023-05-03T01:22:47.857Z,6.60
2023-05-03T01:25:17.687Z,6.50
2023-05-03T01:27:45.757Z,6.50
2023-05-03T01:30:14.602Z,6.60
2023-05-03T01:32:57.799Z,6.40
2023-05-03T01:35:31.707Z,6.60
2023-05-03T01:38:00.898Z,6.40
2023-05-03T01:40:31.895Z,6.30
2023-05-03T01:43:01.687Z,6.20
2023-05-03T01:45:30.184Z,7.20
2023-05-03T01:47:58.480Z,6.10
2023-05-03T01:50:26.620Z,6.10
2023-05-03T01:52:54.759Z,6.10
2023-05-03T01:55:22.920Z,6.10
2023-05-03T01:57:52.381Z,6.00
2023-05-03T02:00:20.885Z,6.00
2023-05-03T02:02:48.982Z,6.10
2023-05-03T02:05:17.467Z,6.10
2023-05-03T02:07:45.741Z,6.10
2023-05-03T02:10:15.011Z,6.10
2023-05-03T02:12:44.020Z,6.40
2023-05-03T02:15:14.298Z,6.10
2023-05-03T02:17:45.715Z,6.10
2023-05-03T02:20:14.247Z,6.10
2023-05-03T02:22:42.371Z,6.10
2023-05-03T02:25:10.523Z,6.00
2023-05-03T02:27:38.983Z,6.10
2023-05-03T02:30:09.031Z,6.00
2023-05-03T02:32:44.044Z,6.00
2023-05-03T02:35:12.512Z,5.90
2023-05-03T02:37:40.761Z,5.90
2023-05-03T02:40:13.319Z,5.90
2023-05-03T02:42:44.172Z,5.90
2023-05-03T02:45:12.730Z,5.80
2023-05-03T02:47:40.920Z,5.80
2023-05-03T02:50:11.493Z,5.90
2023-05-03T02:52:41.724Z,5.80
2023-05-03T02:55:10.547Z,6.00
2023-05-03T02:57:42.267Z,5.70
2023-05-03T03:00:15.278Z,5.60
2023-05-03T03:02:44.116Z,5.60
2023-05-03T03:05:14.228Z,5.60
2023-05-03T03:07:47.531Z,5.60
2023-05-03T03:10:15.981Z,5.50
2023-05-03T03:12:44.241Z,5.50
2023-05-03T03:15:20.536Z,5.50
2023-05-03T03:17:48.651Z,5.50
2023-05-03T03:20:18.471Z,5.50
2023-05-03T03:22:48.894Z,5.40
2023-05-03T03:25:17.121Z,5.40
2023-05-03T03:27:45.215Z,5.40
2023-05-03T03:30:14.394Z,5.40
2023-05-03T03:32:54.181Z,5.30
2023-05-03T03:35:32.003Z,5.30
2023-05-03T03:38:00.174Z,5.30
2023-05-03T03:40:28.591Z,5.40
2023-05-03T03:42:58.455Z,5.30
2023-05-03T03:45:27.381Z,5.30
2023-05-03T03:47:58.018Z,5.20
2023-05-03T03:50:26.754Z,5.10
2023-05-03T03:52:56.188Z,5.10
2023-05-03T03:55:24.474Z,5.10
2023-05-03T03:57:55.464Z,5.10
2023-05-03T04:00:25.465Z,5.00
2023-05-03T04:05:36.454Z,5.20
2023-05-03T04:08:07.437Z,4.90
2023-05-03T04:10:37.203Z,4.90
2023-05-03T04:13:09.608Z,4.90
2023-05-03T04:15:37.919Z,5.20
2023-05-03T04:18:07.327Z,4.90
2023-05-03T04:20:38.687Z,4.90
2023-05-03T04:23:10.230Z,4.80
2023-05-03T04:25:39.084Z,4.80
2023-05-03T04:28:13.475Z,4.80
2023-05-03T04:30:48.492Z,4.90
2023-05-03T04:33:23.697Z,5.10
2023-05-03T04:35:54.409Z,4.90
2023-05-03T04:38:24.730Z,4.90
2023-05-03T04:40:53.440Z,5.00
2023-05-03T04:43:21.888Z,5.00
2023-05-03T04:45:55.608Z,5.00
2023-05-03T04:48:29.645Z,5.00
2023-05-03T04:50:58.052Z,5.20
2023-05-03T04:53:29.041Z,5.30
2023-05-03T04:56:10.561Z,5.30
2023-05-03T04:58:41.333Z,5.60
2023-05-03T05:01:09.848Z,5.40
2023-05-03T05:03:40.878Z,5.50
2023-05-03T05:06:16.763Z,5.60
2023-05-03T05:08:47.425Z,5.70
2023-05-03T05:11:16.393Z,5.80
2023-05-03T05:13:44.765Z,5.90
2023-05-03T05:16:13.858Z,5.90
2023-05-03T05:18:45.730Z,6.20
2023-05-03T05:21:17.733Z,6.10
2023-05-03T05:23:47.416Z,5.90
2023-05-03T05:26:16.106Z,6.00
2023-05-03T05:28:44.915Z,6.00
2023-05-03T05:31:13.196Z,6.00
2023-05-03T05:33:43.127Z,6.10
2023-05-03T05:36:11.977Z,6.10
2023-05-03T05:38:41.573Z,6.20
2023-05-03T05:41:11.831Z,6.30
2023-05-03T05:43:44.495Z,6.30
2023-05-03T05:46:15.556Z,6.40
2023-05-03T05:48:43.981Z,6.40
2023-05-03T05:51:13.104Z,6.50
2023-05-03T05:53:41.508Z,6.70
2023-05-03T05:56:12.333Z,6.60
2023-05-03T05:58:40.587Z,6.70
2023-05-03T06:01:09.915Z,7.00
2023-05-03T06:03:39.610Z,6.90
2023-05-03T06:06:09.692Z,7.10
2023-05-03T06:08:38.183Z,6.90
2023-05-03T06:11:07.711Z,7.00
2023-05-03T06:13:41.152Z,7.10
2023-05-03T06:16:12.449Z,7.10
2023-05-03T06:18:40.917Z,7.30
2023-05-03T06:21:10.249Z,7.80
2023-05-03T06:23:40.688Z,7.70
2023-05-03T06:26:10.292Z,7.90
2023-05-03T06:28:40.100Z,8.00
2023-05-03T06:31:08.459Z,8.00
2023-05-03T06:33:36.980Z,8.00
2023-05-03T06:36:07.053Z,8.10
2023-05-03T06:38:35.600Z,8.10
2023-05-03T06:41:05.362Z,8.10
2023-05-03T06:43:33.516Z,8.20
2023-05-03T06:46:05.700Z,8.20
2023-05-03T06:48:36.757Z,8.30
2023-05-03T06:51:06.118Z,8.30
2023-05-03T06:53:34.135Z,8.30
2023-05-03T06:56:03.796Z,8.40
2023-05-03T06:58:31.834Z,8.90
2023-05-03T07:01:00.101Z,8.50
2023-05-03T07:03:29.757Z,8.60
2023-05-03T07:06:00.776Z,8.60
2023-05-03T07:08:29.326Z,8.70
2023-05-03T07:10:57.455Z,8.70
2023-05-03T07:13:25.982Z,9.20
2023-05-03T07:15:56.357Z,9.20
2023-05-03T07:18:27.196Z,8.80
2023-05-03T07:20:57.370Z,9.00
2023-05-03T07:23:25.718Z,9.20
2023-05-03T07:25:55.142Z,9.20
2023-05-03T07:28:23.253Z,9.30
2023-05-03T07:30:54.916Z,9.40
2023-05-03T07:33:23.078Z,9.40
2023-05-03T07:35:51.280Z,9.40
2023-05-03T07:38:21.005Z,9.70
2023-05-03T07:40:49.474Z,9.60
2023-05-03T07:43:19.727Z,10.10
2023-05-03T07:45:47.932Z,10.20
2023-05-03T07:48:16.129Z,9.90
2023-05-03T07:50:44.814Z,9.90
2023-05-03T07:53:13.454Z,10.00
2023-05-03T07:55:42.961Z,10.10
2023-05-03T07:58:11.088Z,10.20
2023-05-03T08:00:39.130Z,10.20
2023-05-03T08:03:07.476Z,10.30
2023-05-03T08:05:36.674Z,10.40
2023-05-03T08:08:05.589Z,10.50
2023-05-03T08:10:37.671Z,10.50
2023-05-03T08:13:07.495Z,10.60
2023-05-03T08:15:38.521Z,10.70
2023-05-03T08:18:07.431Z,10.80
2023-05-03T08:20:36.960Z,10.80
2023-05-03T08:23:05.137Z,10.90
2023-05-03T08:25:33.247Z,11.00
2023-05-03T08:28:02.350Z,11.10
2023-05-03T08:30:32.113Z,11.20
2023-05-03T08:33:03.519Z,11.50
2023-05-03T08:35:31.971Z,11.30
2023-05-03T08:38:00.029Z,11.50
2023-05-03T08:40:29.177Z,11.50
2023-05-03T08:43:00.586Z,11.50
2023-05-03T08:45:28.851Z,11.60
2023-05-03T08:47:58.339Z,11.60
2023-05-03T08:50:28.099Z,11.60
2023-05-03T08:52:56.907Z,11.70
2023-05-03T08:55:25.001Z,11.70
2023-05-03T08:57:53.345Z,11.70
2023-05-03T09:00:31.311Z,11.90
2023-05-03T09:03:01.484Z,12.00
2023-05-03T09:05:34.753Z,12.20
2023-05-03T09:08:04.374Z,12.20
2023-05-03T09:10:32.754Z,12.40
2023-05-03T09:13:01.695Z,12.50
2023-05-03T09:15:30.736Z,12.50
2023-05-03T09:18:15.812Z,12.50
2023-05-03T09:20:51.322Z,12.40
2023-05-03T09:23:21.092Z,12.40
2023-05-03T09:25:51.250Z,12.40
2023-05-03T09:28:20.864Z,12.40
2023-05-03T09:30:50.039Z,12.40
2023-05-03T09:33:30.462Z,12.50
2023-05-03T09:35:59.649Z,12.50
2023-05-03T09:38:28.965Z,12.70
2023-05-03T09:40:57.048Z,12.80
2023-05-03T09:43:25.715Z,12.90
2023-05-03T09:45:54.509Z,12.90
2023-05-03T09:48:27.984Z,12.90
2023-05-03T09:50:56.386Z,13.00
2023-05-03T09:53:25.486Z,13.00
2023-05-03T09:55:55.986Z,13.00
2023-05-03T09:58:25.846Z,13.00
2023-05-03T10:00:55.632Z,13.10
2023-05-03T10:03:33.517Z,13.10
2023-05-03T10:06:06.569Z,13.20
2023-05-03T10:08:36.238Z,13.30
2023-05-03T10:11:05.664Z,13.40
2023-05-03T10:13:33.698Z,13.40
2023-05-03T10:16:06.814Z,13.50
2023-05-03T10:18:52.276Z,13.60
2023-05-03T10:21:32.393Z,13.60
2023-05-03T10:24:13.990Z,13.70
2023-05-03T10:26:43.456Z,13.70
2023-05-03T10:29:49.802Z,13.70
2023-05-03T10:32:32.150Z,13.80
2023-05-03T10:35:05.716Z,13.90
2023-05-03T10:37:36.759Z,13.90
2023-05-03T10:40:13.664Z,13.90
2023-05-03T10:42:47.195Z,14.00
2023-05-03T10:45:23.657Z,14.00
2023-05-03T10:48:20.388Z,14.10
2023-05-03T10:50:51.598Z,14.10
2023-05-03T10:53:40.825Z,14.10
2023-05-03T10:56:10.069Z,14.20
2023-05-03T10:58:43.468Z,14.30
2023-05-03T11:01:13.144Z,14.30
2023-05-03T11:03:49.983Z,14.30
2023-05-03T11:06:37.427Z,14.30
2023-05-03T11:09:07.632Z,14.50
2023-05-03T11:11:39.123Z,14.50
2023-05-03T11:14:07.436Z,14.50
2023-05-03T11:16:36.488Z,14.50
2023-05-03T11:19:04.926Z,14.60
2023-05-03T11:21:34.395Z,14.70
2023-05-03T11:24:03.446Z,14.70
2023-05-03T11:26:37.080Z,14.80
2023-05-03T11:29:05.855Z,14.80
2023-05-03T11:31:35.687Z,14.90
2023-05-03T11:34:04.112Z,14.80
2023-05-03T11:36:32.978Z,14.90
2023-05-03T11:39:05.612Z,14.90
2023-05-03T11:41:34.288Z,14.90
2023-05-03T11:44:15.201Z,15.00
2023-05-03T11:46:44.353Z,15.00
2023-05-03T11:49:18.921Z,15.00
2023-05-03T11:51:50.690Z,15.00
2023-05-03T11:54:26.385Z,15.10
2023-05-03T11:56:57.582Z,15.20
2023-05-03T11:59:35.804Z,15.30
2023-05-03T12:02:04.446Z,15.40
2023-05-03T12:04:33.392Z,15.40
2023-05-03T12:07:02.983Z,15.50
2023-05-03T12:09:33.711Z,15.60
2023-05-03T12:12:03.457Z,15.80
2023-05-03T12:14:58.951Z,15.70
2023-05-03T12:17:42.842Z,15.80
2023-05-03T12:21:02.975Z,15.80
2023-05-03T12:23:09.910Z,15.90
2023-05-03T12:25:43.894Z,15.90
2023-05-03T12:28:20.106Z,16.00
2023-05-03T12:30:51.533Z,16.10
2023-05-03T12:33:22.928Z,16.10
2023-05-03T12:35:53.929Z,16.10
2023-05-03T12:38:23.898Z,16.10
2023-05-03T12:40:55.536Z,16.10
2023-05-03T12:43:23.911Z,16.10
2023-05-03T12:46:07.630Z,16.10
2023-05-03T12:48:40.534Z,16.10
2023-05-03T12:51:19.476Z,16.20
2023-05-03T12:53:54.433Z,16.30
2023-05-03T12:56:25.579Z,16.20
2023-05-03T13:04:14.690Z,16.40
2023-05-03T13:06:44.861Z,16.50
2023-05-03T13:09:20.886Z,16.60
2023-05-03T13:11:52.197Z,16.50
2023-05-03T13:14:20.742Z,16.60
2023-05-03T13:16:51.279Z,16.70
2023-05-03T13:19:19.547Z,16.60
2023-05-03T13:21:49.236Z,16.70
2023-05-03T13:24:17.942Z,16.60
2023-05-03T13:26:46.475Z,16.60
2023-05-03T13:29:16.103Z,16.60
2023-05-03T13:31:44.228Z,16.80
2023-05-03T13:34:12.369Z,16.60
2023-05-03T13:36:40.498Z,16.60
2023-05-03T13:39:10.299Z,16.70
2023-05-03T13:41:42.106Z,16.60
2023-05-03T13:44:11.597Z,16.70
2023-05-03T13:46:43.280Z,16.70
2023-05-03T13:49:11.836Z,16.80
2023-05-03T13:51:40.003Z,17.00
2023-05-03T13:54:08.256Z,17.00
2023-05-03T13:56:41.640Z,17.00
2023-05-03T13:59:10.092Z,17.00
2023-05-03T14:01:38.462Z,17.00
2023-05-03T14:04:08.406Z,16.90
2023-05-03T14:06:40.097Z,17.00
2023-05-03T14:09:09.294Z,17.00
2023-05-03T14:11:37.979Z,16.90
2023-05-03T14:14:06.181Z,16.90
2023-05-03T14:19:05.408Z,17.10
2023-05-03T14:21:34.890Z,17.40
2023-05-03T14:24:02.905Z,17.20
2023-05-03T14:26:33.370Z,17.10
2023-05-03T14:29:01.731Z,17.10
2023-05-03T14:31:30.351Z,17.30
2023-05-03T14:33:59.304Z,17.20
2023-05-03T14:36:29.888Z,17.20
2023-05-03T14:38:59.338Z,17.20
2023-05-03T14:41:27.934Z,17.30
2023-05-03T14:43:56.072Z,17.30
2023-05-03T14:46:24.395Z,17.40
2023-05-03T14:48:52.561Z,17.50
2023-05-03T14:51:20.643Z,17.40
2023-05-03T14:53:48.729Z,17.50
2023-05-03T14:56:18.371Z,17.40
2023-05-03T14:58:46.627Z,17.40
2023-05-03T15:01:19.387Z,17.50
2023-05-03T15:03:47.631Z,17.50
2023-05-03T15:06:16.666Z,17.60
2023-05-03T15:08:44.842Z,17.60
2023-05-03T15:11:12.973Z,17.70
2023-05-03T15:13:42.411Z,17.70
2023-05-03T15:16:10.430Z,17.70
2023-05-03T15:18:38.429Z,17.70
2023-05-03T15:21:07.324Z,17.80
2023-05-03T15:23:35.396Z,17.60
2023-05-03T15:26:03.852Z,17.60
2023-05-03T15:28:31.825Z,17.60
2023-05-03T15:31:01.843Z,17.50
2023-05-03T15:33:30.144Z,17.40
2023-05-03T15:35:58.335Z,17.50
2023-05-03T15:38:28.936Z,17.50
2023-05-03T15:40:56.998Z,17.50
2023-05-03T15:43:25.116Z,17.40
2023-05-03T15:45:53.542Z,17.30
2023-05-03T15:48:23.059Z,17.40
2023-05-03T15:50:51.481Z,17.30
2023-05-03T15:53:19.549Z,17.40
2023-05-03T15:55:48.226Z,17.40
2023-05-03T15:58:18.097Z,17.40
2023-05-03T16:00:46.852Z,17.50
2023-05-03T16:03:15.146Z,17.50
2023-05-03T16:05:45.319Z,17.50
2023-05-03T16:08:13.508Z,17.50
2023-05-03T16:10:41.755Z,17.50
2023-05-03T16:13:10.465Z,17.70
2023-05-03T16:15:38.656Z,17.50
2023-05-03T16:18:07.126Z,17.50
2023-05-03T16:20:35.211Z,17.50
2023-05-03T16:23:09.082Z,17.50
2023-05-03T16:25:37.549Z,17.50
2023-05-03T16:28:05.889Z,17.70
2023-05-03T16:30:35.102Z,17.50
2023-05-03T16:33:03.543Z,17.50
2023-05-03T16:35:31.848Z,17.50
2023-05-03T16:38:00.185Z,17.50
2023-05-03T16:40:30.109Z,17.60
2023-05-03T16:42:58.176Z,17.60
2023-05-03T16:45:26.239Z,17.60
2023-05-03T16:47:54.496Z,17.50
2023-05-03T16:50:22.624Z,17.60
2023-05-03T16:52:50.679Z,17.60
2023-05-03T16:55:22.979Z,17.60
2023-05-03T16:57:52.592Z,17.70
2023-05-03T17:00:21.959Z,17.70
2023-05-03T17:02:50.363Z,17.80
2023-05-03T17:05:20.234Z,17.70
2023-05-03T17:07:48.324Z,17.60
2023-05-03T17:10:16.665Z,17.60
2023-05-03T17:12:48.610Z,17.60
2023-05-03T17:15:18.432Z,17.50
2023-05-03T17:17:46.720Z,17.40
2023-05-03T17:20:16.512Z,17.40
2023-05-03T17:22:44.736Z,17.40
2023-05-03T17:25:13.456Z,17.40
2023-05-03T17:27:43.486Z,17.50
2023-05-03T17:30:12.522Z,17.40
2023-05-03T17:32:42.922Z,17.50
2023-05-03T17:35:14.043Z,17.50
2023-05-03T17:37:42.136Z,17.50
2023-05-03T17:40:11.099Z,17.50
2023-05-03T17:42:39.657Z,17.40
2023-05-03T17:45:09.737Z,17.30
2023-05-03T17:47:37.798Z,17.20
2023-05-03T17:50:10.081Z,17.00
2023-05-03T17:52:38.184Z,16.90
2023-05-03T17:55:07.342Z,16.90
2023-05-03T17:57:36.850Z,16.80
2023-05-03T18:00:06.129Z,16.60
2023-05-03T18:02:34.633Z,16.50
2023-05-03T18:05:03.189Z,16.50
2023-05-03T18:07:32.617Z,16.40
2023-05-03T18:10:03.680Z,16.30
2023-05-03T18:12:32.049Z,16.20
2023-05-03T18:15:00.421Z,16.20
2023-05-03T18:17:29.262Z,16.20
2023-05-03T18:19:57.596Z,16.10
2023-05-03T18:22:27.528Z,16.00
2023-05-03T18:24:59.042Z,15.90
2023-05-03T18:27:27.389Z,15.80
2023-05-03T18:29:55.486Z,15.70
2023-05-03T18:32:24.892Z,15.50
2023-05-03T18:34:53.072Z,15.30
2023-05-03T18:37:24.427Z,15.20
2023-05-03T18:39:53.090Z,15.50
2023-05-03T18:42:22.847Z,14.90
2023-05-03T18:44:51.034Z,14.80
2023-05-03T18:47:20.984Z,14.60
2023-05-03T18:49:52.444Z,14.60
2023-05-03T18:52:20.819Z,14.40
2023-05-03T18:54:49.560Z,14.30
2023-05-03T18:57:17.659Z,14.20
2023-05-03T18:59:59.602Z,14.10
2023-05-03T19:02:31.546Z,14.00
2023-05-03T19:05:00.952Z,13.90
2023-05-03T19:07:29.548Z,13.80
2023-05-03T19:10:07.742Z,13.80
2023-05-03T19:12:36.244Z,13.70
2023-05-03T19:15:06.102Z,13.60
2023-05-03T19:17:34.483Z,13.60
2023-05-03T19:20:02.960Z,13.50
2023-05-03T19:22:31.697Z,13.40
2023-05-03T19:25:00.546Z,13.40
2023-05-03T19:27:29.356Z,13.30
2023-05-03T19:29:58.012Z,13.30
2023-05-03T19:32:27.843Z,13.30
2023-05-03T19:34:56.292Z,13.10
2023-05-03T19:37:24.561Z,13.10
2023-05-03T19:39:52.674Z,13.00
2023-05-03T19:42:20.706Z,13.00
2023-05-03T19:44:50.531Z,13.00
2023-05-03T19:47:18.598Z,13.10
2023-05-03T19:49:51.188Z,12.80
2023-05-03T19:52:19.307Z,12.80
2023-05-03T19:54:47.372Z,12.80
2023-05-03T19:57:15.527Z,12.80
2023-05-03T19:59:43.832Z,12.70
2023-05-03T20:02:12.249Z,12.60
2023-05-03T20:04:41.457Z,12.60
2023-05-03T20:07:10.920Z,12.60
2023-05-03T20:09:38.986Z,12.50
2023-05-03T20:12:07.400Z,12.50
2023-05-03T20:14:35.430Z,12.50
2023-05-03T20:17:04.279Z,12.70
2023-05-03T20:19:32.309Z,12.50
2023-05-03T20:22:01.009Z,12.50
2023-05-03T20:24:30.450Z,12.40
2023-05-03T20:26:58.556Z,12.40
2023-05-03T20:29:26.613Z,12.30
2023-05-03T20:31:54.767Z,12.30
2023-05-03T20:34:22.940Z,12.20
2023-05-03T20:36:52.787Z,12.20
2023-05-03T20:39:20.903Z,12.00
2023-05-03T20:41:50.283Z,12.00
2023-05-03T20:44:18.320Z,11.90
2023-05-03T20:46:46.615Z,11.90
2023-05-03T20:49:14.961Z,11.80
2023-05-03T20:51:42.992Z,11.70
2023-05-03T20:54:11.185Z,11.70
2023-05-03T20:56:39.231Z,11.60
2023-05-03T20:59:10.167Z,11.50
2023-05-03T21:01:41.109Z,11.50
2023-05-03T21:04:09.432Z,11.50
2023-05-03T21:06:38.332Z,11.50
2023-05-03T21:09:08.347Z,11.50
2023-05-03T21:11:36.341Z,11.40
2023-05-03T21:14:04.580Z,11.30
2023-05-03T21:16:37.905Z,11.30
2023-05-03T21:19:06.368Z,11.20
2023-05-03T21:21:34.847Z,11.30
2023-05-03T21:24:05.347Z,11.30
2023-05-03T21:26:33.680Z,11.30
2023-05-03T21:29:01.922Z,11.20
2023-05-03T21:31:30.178Z,11.50
2023-05-03T21:34:00.158Z,11.10
2023-05-03T21:36:28.399Z,11.50
2023-05-03T21:38:56.670Z,11.10
2023-05-03T21:41:24.794Z,11.10
2023-05-03T21:43:52.895Z,11.10
2023-05-03T21:46:21.138Z,11.10
2023-05-03T21:48:49.384Z,11.10
2023-05-03T21:51:23.514Z,11.10
2023-05-03T21:53:51.708Z,11.10
2023-05-03T21:56:19.783Z,11.10
2023-05-03T21:58:48.050Z,11.10
2023-05-03T22:01:17.428Z,11.10
2023-05-03T22:03:45.752Z,11.00
2023-05-03T22:06:16.634Z,11.00
2023-05-03T22:08:46.232Z,11.10
2023-05-03T22:11:14.671Z,10.90
2023-05-03T22:13:58.723Z,10.90
2023-05-03T22:16:31.814Z,10.90
2023-05-03T22:18:59.988Z,10.80
2023-05-03T22:21:30.838Z,11.00
2023-05-03T22:24:03.410Z,10.90
2023-05-03T22:26:31.524Z,10.80
2023-05-03T22:28:59.766Z,10.80
2023-05-03T22:31:30.297Z,10.80
2023-05-03T22:33:58.615Z,10.80
2023-05-03T22:36:26.693Z,10.70
2023-05-03T22:39:02.368Z,10.60
2023-05-03T22:41:32.207Z,10.70
2023-05-03T22:44:00.352Z,10.60
2023-05-03T22:46:29.180Z,10.60
2023-05-03T22:48:57.421Z,10.60
2023-05-03T22:51:25.596Z,10.60
2023-05-03T22:53:53.660Z,10.60
2023-05-03T22:56:21.649Z,10.60
2023-05-03T22:58:51.153Z,10.60
2023-05-03T23:01:19.262Z,10.60
2023-05-03T23:03:50.234Z,10.50
2023-05-03T23:06:18.568Z,10.50
2023-05-03T23:08:46.638Z,10.40
2023-05-03T23:11:14.793Z,10.40
2023-05-03T23:13:43.151Z,10.30
2023-05-03T23:16:12.830Z,10.40
2023-05-03T23:18:40.858Z,10.30
2023-05-03T23:21:09.198Z,10.40
2023-05-03T23:23:37.398Z,10.40
2023-05-03T23:26:06.526Z,10.30
2023-05-03T23:28:35.066Z,10.30
2023-05-03T23:31:04.455Z,10.30
2023-05-03T23:33:34.390Z,10.30
2023-05-03T23:36:02.409Z,10.30
2023-05-03T23:38:30.952Z,10.30
2023-05-03T23:40:59.188Z,10.30
2023-05-03T23:43:27.337Z,10.20
2023-05-03T23:45:55.316Z,10.30
2023-05-03T23:48:23.292Z,10.30
2023-05-03T23:50:52.811Z,10.20
2023-05-03T23:53:20.780Z,10.20
2023-05-03T23:55:48.800Z,10.20
2023-05-03T23:58:16.892Z,10.20
